Ramah, Louisiana
Current Conditions -  °F | °C
As of 9:35 PM on Saturday 24 Jan 2015 (Local Time) from KHZR Reporting Station
Clear Clear  
Wind Chill: 44°   Ceiling: Unl
Heat Index: 46°   Visibility: 10mi
Dew Point: 38°   Wind: 5mph
Humidity: 74%   Direction: 210°SSW
Pressure: 30.07"   Gusts: NA
Location:  30.4461°N, 91.569°W
Report Text: KHZR 250335Z AUTO 21004KT 10SM CLR 08/03 A3007 RMK AO2 T00770033
Loading
Personal Weather Stations






























Interactive Weather Map New forecast layout! Learn more

10-Day Weather Forecast

Advertisements
Track Severe Weather on mobile